Time;durP1;ratioP1;P1;durP2;ratioP2;P2;SDS_P1;SDS_P2;PMS_P1;PMS_P2;Temp;Humidity;BMP_temperature;BMP_pressure;BME280_temperature;BME280_humidity;BME280_pressure;Samples;Min_cycle;Max_cycle;Signal;HPM_P1;HPM_P2
2022/06/24 00:01:26;;;;;;;2.60;2.10;;;30.90;36.40;;;;;;5008893;28;20449;-81
2022/06/24 00:03:54;;;;;;;2.10;2.10;;;30.90;36.60;;;;;;5009583;28;20440;-81
2022/06/24 00:06:22;;;;;;;2.20;2.10;;;30.90;36.50;;;;;;5011357;28;20556;-81
2022/06/24 00:08:51;;;;;;;2.50;2.40;;;30.80;36.60;;;;;;5014708;28;20824;-81
2022/06/24 00:11:24;;;;;;;2.23;2.13;;;30.80;36.60;;;;;;5010921;28;20504;-81
2022/06/24 00:14:03;;;;;;;2.30;2.20;;;30.70;36.50;;;;;;5008878;28;20982;-81
2022/06/24 00:16:31;;;;;;;2.70;2.40;;;30.70;36.70;;;;;;5011809;28;20444;-81
2022/06/24 00:19:09;;;;;;;2.40;2.30;;;30.60;36.60;;;;;;5008726;28;20444;-82
2022/06/24 00:21:37;;;;;;;2.47;2.37;;;30.60;36.70;;;;;;5010839;28;20450;-81
2022/06/24 00:24:06;;;;;;;2.50;2.40;;;30.60;36.90;;;;;;5015117;28;20540;-81
2022/06/24 00:26:38;;;;;;;2.60;2.50;;;30.60;36.80;;;;;;5011043;28;20963;-81
2022/06/24 00:29:15;;;;;;;2.30;2.20;;;30.60;36.80;;;;;;5008723;28;20445;-81
2022/06/24 00:31:45;;;;;;;2.60;2.50;;;30.60;36.90;;;;;;5008554;28;20535;-81
2022/06/24 00:34:23;;;;;;;2.60;2.50;;;30.50;36.80;;;;;;5007586;28;20441;-82
2022/06/24 00:36:51;;;;;;;2.63;2.53;;;30.50;36.90;;;;;;5016152;28;20472;-81
2022/06/24 00:39:19;;;;;;;2.67;2.57;;;30.40;37.00;;;;;;5025727;28;20460;-81
2022/06/24 00:41:50;;;;;;;2.63;2.43;;;30.40;36.90;;;;;;5030795;28;20468;-81
2022/06/24 00:44:20;;;;;;;2.67;2.53;;;30.40;37.00;;;;;;5039225;28;20475;-81
2022/06/24 00:46:48;;;;;;;2.40;2.30;;;30.40;37.10;;;;;;5039225;28;20443;-81
2022/06/24 00:49:16;;;;;;;2.27;2.03;;;30.40;37.20;;;;;;5038203;28;20454;-81
2022/06/24 00:51:44;;;;;;;2.50;2.40;;;30.40;37.10;;;;;;5038292;28;20550;-81
2022/06/24 00:54:14;;;;;;;2.33;2.23;;;30.30;37.00;;;;;;5038082;28;20543;-81
2022/06/24 00:56:42;;;;;;;2.37;2.27;;;30.20;37.10;;;;;;5027507;28;20563;-81
2022/06/24 00:59:13;;;;;;;2.70;2.60;;;30.20;37.10;;;;;;5038077;28;20454;-81
2022/06/24 01:01:43;;;;;;;2.30;2.20;;;30.20;37.20;;;;;;5040894;28;20470;-81
2022/06/24 01:04:12;;;;;;;2.50;2.40;;;30.10;37.20;;;;;;5049108;28;20466;-82
2022/06/24 01:06:41;;;;;;;2.50;2.40;;;30.10;37.30;;;;;;5049301;28;20455;-82
2022/06/24 01:09:09;;;;;;;2.20;2.10;;;30.10;37.30;;;;;;5047263;28;20447;-82
2022/06/24 01:11:37;;;;;;;2.30;2.20;;;30.10;37.30;;;;;;5037989;28;20473;-83
2022/06/24 01:14:06;;;;;;;2.30;2.20;;;30.00;37.40;;;;;;5028626;28;20503;-82
2022/06/24 01:16:34;;;;;;;2.43;2.33;;;30.00;37.50;;;;;;5034003;28;20506;-82
2022/06/24 01:19:05;;;;;;;2.60;2.50;;;30.00;37.40;;;;;;5037591;28;20451;-82
2022/06/24 01:21:35;;;;;;;2.20;2.10;;;30.00;37.60;;;;;;5037662;28;20451;-83
2022/06/24 01:24:05;;;;;;;2.50;2.30;;;30.00;37.60;;;;;;5037077;28;20534;-82
2022/06/24 01:26:33;;;;;;;2.87;2.33;;;29.90;37.60;;;;;;5020425;28;20531;-82
2022/06/24 01:29:08;;;;;;;2.90;2.80;;;29.90;37.50;;;;;;5021908;28;20451;-82
2022/06/24 01:31:38;;;;;;;2.43;2.33;;;29.90;37.60;;;;;;5028489;28;20467;-82
2022/06/24 01:34:06;;;;;;;2.43;2.30;;;29.90;37.60;;;;;;5037621;28;20454;-82
2022/06/24 01:36:36;;;;;;;2.90;2.20;;;29.80;37.60;;;;;;5037055;28;20535;-80
2022/06/24 01:39:04;;;;;;;2.23;2.13;;;29.80;37.70;;;;;;5038251;28;20470;-80
2022/06/24 01:41:32;;;;;;;2.70;2.50;;;29.70;37.70;;;;;;5038052;28;20482;-80
2022/06/24 01:44:01;;;;;;;2.37;2.27;;;29.70;37.80;;;;;;5038072;28;20474;-80
2022/06/24 01:46:29;;;;;;;2.43;2.33;;;29.70;37.70;;;;;;5029805;28;20463;-82
2022/06/24 01:48:57;;;;;;;2.40;2.30;;;29.70;37.60;;;;;;5021385;28;20443;-82
2022/06/24 01:51:25;;;;;;;2.27;2.17;;;29.60;37.80;;;;;;5040280;28;20460;-82
2022/06/24 01:53:55;;;;;;;2.23;2.13;;;29.60;37.90;;;;;;5040271;28;20455;-83
2022/06/24 01:56:23;;;;;;;2.40;2.30;;;29.50;38.00;;;;;;5038093;28;20449;-82
2022/06/24 01:58:51;;;;;;;2.37;2.27;;;29.50;38.00;;;;;;5039918;28;20451;-82
2022/06/24 02:01:19;;;;;;;2.60;2.50;;;29.50;38.10;;;;;;5051861;28;20451;-82
2022/06/24 02:03:47;;;;;;;2.40;2.20;;;29.50;38.00;;;;;;5035508;28;20448;-83
2022/06/24 02:06:15;;;;;;;2.30;2.20;;;29.40;38.00;;;;;;5036268;28;20479;-82
2022/06/24 02:08:43;;;;;;;2.53;2.43;;;29.50;38.20;;;;;;5037085;28;20467;-83
2022/06/24 02:13:59;;;;;;;2.80;2.60;;;29.40;38.20;;;;;;5031303;28;20449;-83
2022/06/24 02:16:27;;;;;;;2.23;2.13;;;29.40;38.20;;;;;;5032049;28;20499;-83
2022/06/24 02:18:56;;;;;;;2.33;2.23;;;29.30;38.20;;;;;;5029008;28;20479;-83
2022/06/24 02:21:24;;;;;;;2.40;2.30;;;29.30;38.20;;;;;;5023606;28;20444;-82
2022/06/24 02:23:52;;;;;;;2.30;2.20;;;29.30;38.20;;;;;;5031884;28;20447;-82
2022/06/24 02:26:21;;;;;;;2.33;2.23;;;29.20;38.30;;;;;;5031900;28;20444;-82
2022/06/24 02:28:49;;;;;;;2.70;2.60;;;29.20;38.40;;;;;;5031847;28;20451;-80
2022/06/24 02:31:17;;;;;;;2.40;2.30;;;29.20;38.40;;;;;;5031931;28;20444;-80
2022/06/24 02:33:46;;;;;;;2.40;2.30;;;29.20;38.50;;;;;;5031989;28;20450;-80
2022/06/24 02:36:14;;;;;;;2.80;2.70;;;29.20;38.40;;;;;;5025782;28;20501;-80
2022/06/24 02:38:42;;;;;;;2.13;2.03;;;29.10;38.50;;;;;;5027293;28;20514;-80
2022/06/24 02:41:12;;;;;;;2.20;2.10;;;29.10;38.50;;;;;;5035747;28;20474;-80
2022/06/24 02:43:42;;;;;;;2.20;2.10;;;29.10;38.80;;;;;;5036453;28;20522;-82
2022/06/24 02:46:11;;;;;;;2.63;2.53;;;29.00;38.70;;;;;;5036073;28;20471;-82
2022/06/24 02:48:40;;;;;;;2.43;2.33;;;29.00;38.60;;;;;;5035988;28;20460;-82
2022/06/24 02:51:09;;;;;;;2.73;2.63;;;29.10;38.70;;;;;;5035498;28;20451;-82
2022/06/24 02:53:37;;;;;;;2.87;2.60;;;29.00;38.50;;;;;;5027539;28;20480;-82
2022/06/24 02:56:07;;;;;;;2.50;2.30;;;29.00;38.60;;;;;;5027562;28;20528;-82
2022/06/24 02:58:35;;;;;;;2.40;2.30;;;29.00;38.80;;;;;;5035749;28;20467;-82
2022/06/24 03:01:04;;;;;;;2.43;2.33;;;29.00;38.80;;;;;;5036137;28;20478;-82
2022/06/24 03:03:33;;;;;;;2.60;2.40;;;29.00;38.80;;;;;;5035668;28;20467;-82
2022/06/24 03:06:01;;;;;;;2.30;2.20;;;28.90;38.70;;;;;;5035617;28;20447;-83
2022/06/24 03:08:29;;;;;;;6.43;2.40;;;28.90;38.80;;;;;;5035805;28;20444;-82
2022/06/24 03:10:57;;;;;;;2.13;2.03;;;28.80;38.80;;;;;;5023760;28;20502;-82
2022/06/24 03:13:25;;;;;;;2.67;2.57;;;28.80;38.90;;;;;;5020198;28;20499;-82
2022/06/24 03:15:53;;;;;;;2.37;2.27;;;28.80;38.90;;;;;;5016537;28;20475;-82
2022/06/24 03:18:23;;;;;;;2.30;2.20;;;28.80;39.00;;;;;;5015549;28;20449;-82
2022/06/24 03:20:52;;;;;;;2.30;2.20;;;28.80;38.90;;;;;;5014425;28;20476;-82
2022/06/24 03:23:20;;;;;;;2.13;2.03;;;28.80;39.10;;;;;;5014893;28;20484;-82
2022/06/24 03:25:48;;;;;;;2.60;2.50;;;28.80;38.90;;;;;;5015600;28;20455;-82
2022/06/24 03:28:16;;;;;;;2.30;2.20;;;28.70;39.00;;;;;;5023479;28;20444;-82
2022/06/24 03:30:44;;;;;;;2.30;2.20;;;28.80;39.00;;;;;;5033651;28;20947;-82
2022/06/24 03:33:12;;;;;;;2.50;2.40;;;28.70;39.00;;;;;;5035408;28;20498;-83
2022/06/24 03:35:42;;;;;;;3.00;2.80;;;28.70;39.00;;;;;;5035543;28;20468;-82
2022/06/24 03:38:10;;;;;;;2.67;2.53;;;28.70;39.20;;;;;;5035815;28;20557;-82
2022/06/24 03:40:38;;;;;;;2.40;2.30;;;28.70;39.70;;;;;;5036139;28;20530;-82
2022/06/24 03:43:06;;;;;;;2.40;2.30;;;28.70;39.00;;;;;;5038582;28;20483;-82
2022/06/24 03:45:34;;;;;;;2.40;2.30;;;28.70;39.20;;;;;;5024975;28;20508;-82
2022/06/24 03:48:02;;;;;;;2.40;2.30;;;28.70;39.10;;;;;;5039248;28;20445;-83
2022/06/24 03:50:30;;;;;;;2.67;2.57;;;28.60;39.30;;;;;;5039377;28;20448;-83
2022/06/24 03:53:00;;;;;;;2.63;2.53;;;28.70;39.10;;;;;;5039624;28;20471;-83
2022/06/24 03:55:28;;;;;;;2.33;2.23;;;28.60;39.10;;;;;;5040166;28;20473;-83
2022/06/24 03:57:56;;;;;;;2.20;2.10;;;28.60;39.20;;;;;;5039573;28;20499;-83
2022/06/24 04:00:24;;;;;;;2.40;2.30;;;28.60;39.20;;;;;;5029070;28;20476;-83
2022/06/24 04:02:53;;;;;;;2.50;2.40;;;28.60;39.20;;;;;;5038568;28;20437;-83
2022/06/24 04:05:21;;;;;;;2.33;2.23;;;28.60;39.20;;;;;;5039639;28;20542;-83
2022/06/24 04:07:49;;;;;;;2.40;2.30;;;28.60;39.20;;;;;;5039365;28;20491;-82
2022/06/24 04:10:19;;;;;;;2.60;2.50;;;28.60;39.00;;;;;;5039232;28;20451;-82
2022/06/24 04:12:47;;;;;;;2.90;2.80;;;28.60;39.20;;;;;;5039588;28;20977;-82
2022/06/24 04:15:17;;;;;;;2.53;2.40;;;28.70;39.20;;;;;;5032496;28;20488;-83
2022/06/24 04:17:46;;;;;;;2.77;2.53;;;28.70;39.20;;;;;;5028815;28;20478;-82
2022/06/24 04:20:14;;;;;;;2.37;2.27;;;28.70;39.10;;;;;;5039077;28;20452;-83
2022/06/24 04:22:42;;;;;;;2.47;2.37;;;28.70;39.10;;;;;;5038902;28;20502;-82
2022/06/24 04:25:11;;;;;;;2.50;2.40;;;28.70;39.00;;;;;;5039201;28;20510;-82
2022/06/24 04:27:41;;;;;;;2.60;2.50;;;28.70;39.20;;;;;;5038111;28;20447;-82
2022/06/24 04:30:10;;;;;;;2.30;2.20;;;28.70;39.10;;;;;;5038704;28;20441;-82
2022/06/24 04:32:38;;;;;;;2.43;2.33;;;28.70;39.00;;;;;;5037319;28;20465;-83
2022/06/24 04:35:07;;;;;;;2.63;2.53;;;28.70;39.10;;;;;;5027701;28;20475;-83
2022/06/24 04:37:36;;;;;;;2.50;2.40;;;28.70;39.00;;;;;;5035953;28;20518;-83
2022/06/24 04:40:07;;;;;;;2.57;2.47;;;28.70;39.10;;;;;;5038763;28;20509;-83
2022/06/24 04:42:35;;;;;;;2.70;2.30;;;28.70;39.00;;;;;;5039169;28;20467;-82
2022/06/24 04:45:05;;;;;;;3.67;2.63;;;28.70;39.10;;;;;;5040638;28;20424;-83
2022/06/24 04:47:33;;;;;;;2.70;2.60;;;28.70;39.00;;;;;;5038899;28;20497;-83
2022/06/24 04:50:02;;;;;;;2.40;2.30;;;28.70;39.00;;;;;;5039271;28;20435;-83
2022/06/24 04:52:30;;;;;;;2.50;2.40;;;28.70;39.00;;;;;;5028098;28;20475;-82
2022/06/24 04:54:59;;;;;;;2.50;2.40;;;28.70;39.00;;;;;;4999320;28;20444;-83
2022/06/24 04:57:27;;;;;;;2.80;2.70;;;28.70;39.00;;;;;;4999840;28;20473;-82
2022/06/24 04:59:55;;;;;;;2.33;2.23;;;28.70;39.00;;;;;;4998740;28;20445;-82
2022/06/24 05:02:24;;;;;;;2.47;2.37;;;28.70;39.00;;;;;;4999905;28;20507;-83
2022/06/24 05:04:52;;;;;;;2.70;2.50;;;28.70;39.10;;;;;;4999331;28;20460;-82
2022/06/24 05:07:21;;;;;;;2.77;2.67;;;28.70;39.10;;;;;;4999640;28;20889;-82
2022/06/24 05:09:49;;;;;;;2.70;2.60;;;28.70;39.10;;;;;;5028853;28;20462;-82
2022/06/24 05:12:17;;;;;;;2.67;2.57;;;28.70;39.60;;;;;;5038584;28;20498;-82
2022/06/24 05:14:45;;;;;;;3.07;2.93;;;28.70;39.10;;;;;;5039090;28;20444;-82
2022/06/24 05:17:18;;;;;;;2.43;2.33;;;28.70;39.00;;;;;;5038420;28;20467;-83
2022/06/24 05:19:48;;;;;;;2.80;2.70;;;28.70;38.90;;;;;;5038867;28;20439;-83
2022/06/24 05:22:16;;;;;;;2.80;2.70;;;28.80;39.00;;;;;;5038968;28;20464;-83
2022/06/24 05:24:44;;;;;;;2.70;2.60;;;28.80;39.00;;;;;;5038854;28;20474;-83
2022/06/24 05:27:12;;;;;;;2.60;2.50;;;28.80;38.70;;;;;;5027625;28;20487;-83
2022/06/24 05:29:40;;;;;;;3.07;2.97;;;28.80;38.80;;;;;;5019030;28;20452;-82
2022/06/24 05:32:09;;;;;;;2.60;2.50;;;28.90;38.80;;;;;;5018526;28;20526;-82
2022/06/24 05:34:37;;;;;;;2.87;2.77;;;28.90;38.60;;;;;;5018001;28;20444;-82
2022/06/24 05:37:06;;;;;;;2.47;2.37;;;29.00;38.50;;;;;;5018784;28;20535;-82
2022/06/24 05:39:35;;;;;;;2.67;2.57;;;29.00;38.50;;;;;;5018825;28;20448;-82
2022/06/24 05:42:03;;;;;;;2.67;2.57;;;29.10;38.20;;;;;;5022155;28;21040;-82
2022/06/24 05:44:31;;;;;;;2.60;2.50;;;29.10;38.10;;;;;;5030365;28;20820;-82
2022/06/24 05:46:59;;;;;;;3.00;2.80;;;29.00;38.00;;;;;;5038493;28;20482;-82
2022/06/24 05:49:27;;;;;;;3.13;2.90;;;29.10;38.20;;;;;;5038124;28;20443;-82
2022/06/24 05:51:55;;;;;;;2.80;2.70;;;29.20;38.00;;;;;;5038131;28;20444;-82
2022/06/24 05:57:11;;;;;;;3.20;3.10;;;29.20;38.00;;;;;;5036987;28;20546;-82
2022/06/24 05:59:39;;;;;;;2.90;2.80;;;29.30;37.90;;;;;;5030162;28;20453;-83
2022/06/24 06:02:07;;;;;;;2.80;2.70;;;29.30;37.70;;;;;;5039221;28;20498;-83
2022/06/24 06:04:35;;;;;;;3.03;2.93;;;29.40;37.70;;;;;;5037578;28;20451;-82
2022/06/24 06:07:03;;;;;;;2.93;2.83;;;29.40;37.80;;;;;;5037530;28;20442;-82
2022/06/24 06:09:33;;;;;;;2.70;2.60;;;29.50;37.50;;;;;;5038462;28;20502;-82
2022/06/24 06:12:01;;;;;;;2.83;2.73;;;29.50;37.60;;;;;;5042151;28;20502;-82
2022/06/24 06:14:29;;;;;;;3.00;2.80;;;29.60;37.40;;;;;;5032568;28;20456;-82
2022/06/24 06:17:02;;;;;;;2.83;2.73;;;29.60;37.50;;;;;;4995396;28;20456;-82
2022/06/24 06:19:32;;;;;;;3.30;3.20;;;29.60;37.40;;;;;;5002502;28;20550;-82
2022/06/24 06:22:00;;;;;;;3.10;3.00;;;29.70;37.50;;;;;;5002267;28;20911;-82
2022/06/24 06:24:29;;;;;;;3.07;2.90;;;29.70;37.40;;;;;;5002390;28;20535;-82
2022/06/24 06:26:58;;;;;;;2.80;2.60;;;29.80;37.40;;;;;;5002486;28;20445;-82
2022/06/24 06:29:26;;;;;;;2.50;2.40;;;29.80;37.20;;;;;;5005257;28;20445;-82
2022/06/24 06:31:55;;;;;;;3.13;3.03;;;29.80;37.40;;;;;;5033325;28;20459;-82
2022/06/24 06:34:23;;;;;;;3.07;2.90;;;29.90;37.20;;;;;;5041351;28;20478;-82
2022/06/24 06:36:51;;;;;;;2.77;2.57;;;29.80;37.20;;;;;;5041404;28;20430;-82
2022/06/24 06:39:19;;;;;;;3.40;3.20;;;29.90;37.50;;;;;;5041347;28;20530;-82
2022/06/24 06:41:47;;;;;;;2.80;2.70;;;29.90;37.40;;;;;;5041702;28;20529;-82
2022/06/24 06:44:17;;;;;;;3.00;2.90;;;30.00;37.50;;;;;;5041710;28;20475;-82
2022/06/24 06:46:45;;;;;;;3.97;3.40;;;30.00;37.30;;;;;;5038878;28;20474;-82
2022/06/24 06:49:13;;;;;;;2.80;2.70;;;30.00;37.30;;;;;;5027331;28;20458;-82
2022/06/24 06:51:41;;;;;;;3.10;3.00;;;30.10;37.40;;;;;;5041375;28;20562;-83
2022/06/24 06:54:11;;;;;;;3.10;3.00;;;30.10;37.30;;;;;;5040910;28;20938;-82
2022/06/24 06:56:40;;;;;;;3.30;3.20;;;30.20;37.30;;;;;;5041231;28;20451;-82
2022/06/24 06:59:08;;;;;;;3.10;3.00;;;30.20;37.20;;;;;;5040887;28;20467;-82
2022/06/24 07:01:37;;;;;;;3.27;3.17;;;30.30;37.30;;;;;;5042712;28;20486;-82
2022/06/24 07:04:05;;;;;;;3.20;3.00;;;30.30;37.20;;;;;;5030258;28;20491;-82
2022/06/24 07:06:33;;;;;;;3.43;3.23;;;30.30;37.30;;;;;;5038072;28;20475;-82
2022/06/24 07:09:01;;;;;;;2.90;2.80;;;30.40;37.40;;;;;;5040719;28;20450;-82
2022/06/24 07:11:29;;;;;;;3.27;3.17;;;30.30;37.30;;;;;;5040204;28;20485;-82
2022/06/24 07:13:57;;;;;;;3.70;3.40;;;30.40;37.50;;;;;;5040619;28;20425;-82
2022/06/24 07:16:26;;;;;;;3.27;3.10;;;30.40;37.50;;;;;;5041124;28;20506;-82
2022/06/24 07:18:55;;;;;;;3.57;3.37;;;30.40;37.50;;;;;;5032359;28;20469;-82
2022/06/24 07:21:23;;;;;;;3.33;3.13;;;30.50;37.50;;;;;;5031592;28;20511;-82
2022/06/24 07:23:51;;;;;;;3.60;3.30;;;30.60;37.50;;;;;;5040192;28;20539;-82
2022/06/24 07:26:19;;;;;;;3.20;3.10;;;30.70;37.70;;;;;;5040404;28;20534;-82
2022/06/24 07:28:47;;;;;;;3.37;3.27;;;30.70;37.60;;;;;;5040737;28;20523;-82
2022/06/24 07:31:15;;;;;;;3.60;3.40;;;30.80;37.70;;;;;;5040556;28;20439;-82
2022/06/24 07:33:44;;;;;;;3.70;3.50;;;31.00;37.70;;;;;;5041006;28;20501;-83
2022/06/24 07:36:13;;;;;;;3.67;3.47;;;31.10;37.60;;;;;;5034292;28;20459;-83
2022/06/24 07:38:41;;;;;;;6.73;3.63;;;31.20;37.50;;;;;;5032007;28;20466;-83
2022/06/24 07:41:09;;;;;;;3.77;3.60;;;31.30;37.80;;;;;;5040124;28;20530;-83
2022/06/24 07:43:38;;;;;;;4.07;3.87;;;31.50;37.90;;;;;;5040419;28;20478;-83
2022/06/24 07:46:08;;;;;;;4.07;3.63;;;31.60;37.80;;;;;;5040254;28;20443;-83
2022/06/24 07:48:37;;;;;;;4.03;3.73;;;31.70;37.80;;;;;;5040710;28;20443;-82
2022/06/24 07:51:13;;;;;;;3.80;3.50;;;31.80;38.00;;;;;;5037862;28;20447;-83
2022/06/24 07:53:41;;;;;;;3.83;3.60;;;32.00;38.00;;;;;;5029423;28;20447;-82
2022/06/24 07:59:02;;;;;;;4.10;3.90;;;32.10;38.30;;;;;;5039553;28;20471;-82
2022/06/24 08:01:30;;;;;;;4.30;4.00;;;32.20;38.30;;;;;;5040262;28;20531;-83
2022/06/24 08:03:58;;;;;;;3.97;3.57;;;32.30;38.30;;;;;;5040110;28;20447;-83
2022/06/24 08:06:28;;;;;;;4.20;3.90;;;32.40;38.40;;;;;;5039746;28;20458;-83
2022/06/24 08:08:56;;;;;;;4.43;3.67;;;32.40;38.40;;;;;;5020775;28;20461;-83
2022/06/24 08:11:24;;;;;;;4.27;3.90;;;32.50;38.30;;;;;;5034812;28;20440;-83
2022/06/24 08:13:52;;;;;;;3.93;3.70;;;32.60;38.50;;;;;;5039436;28;20456;-83
2022/06/24 08:16:21;;;;;;;4.30;3.90;;;32.70;38.50;;;;;;5038759;28;20482;-83
2022/06/24 08:18:49;;;;;;;4.27;3.97;;;32.80;38.40;;;;;;5039556;28;20475;-83
2022/06/24 08:21:17;;;;;;;3.97;3.67;;;32.90;38.50;;;;;;5039141;28;20950;-82
2022/06/24 08:23:47;;;;;;;4.40;4.10;;;33.00;38.60;;;;;;5037385;28;20451;-82
2022/06/24 08:26:16;;;;;;;3.90;3.60;;;33.10;38.60;;;;;;5027095;28;20464;-82
2022/06/24 08:28:44;;;;;;;3.93;3.63;;;33.20;38.60;;;;;;5037314;28;21009;-82
2022/06/24 08:31:12;;;;;;;4.40;4.03;;;33.30;38.40;;;;;;5034707;28;20478;-82
2022/06/24 08:33:40;;;;;;;4.40;4.10;;;33.40;38.50;;;;;;5017071;28;20448;-82
2022/06/24 08:36:08;;;;;;;4.30;3.80;;;33.50;38.60;;;;;;5011550;28;20495;-82
2022/06/24 08:38:37;;;;;;;4.50;4.20;;;33.60;38.40;;;;;;5010049;28;20503;-83
2022/06/24 08:41:06;;;;;;;4.00;3.70;;;33.70;38.40;;;;;;5007887;28;20449;-82
2022/06/24 08:43:35;;;;;;;3.90;3.60;;;33.90;38.50;;;;;;5011916;28;20505;-82
2022/06/24 08:46:04;;;;;;;4.53;4.20;;;34.00;38.40;;;;;;5006932;28;20433;-82
2022/06/24 08:48:36;;;;;;;4.43;4.00;;;34.20;39.00;;;;;;5009844;28;20432;-82
2022/06/24 08:51:04;;;;;;;4.53;4.23;;;34.40;38.30;;;;;;5008083;28;20465;-83
2022/06/24 08:53:32;;;;;;;4.73;4.43;;;34.50;38.00;;;;;;5007443;28;20496;-83
2022/06/24 08:56:02;;;;;;;4.90;4.50;;;34.60;37.90;;;;;;4986215;28;20525;-83
2022/06/24 08:58:31;;;;;;;8.40;4.20;;;34.80;37.80;;;;;;5005491;28;20487;-83
2022/06/24 09:01:00;;;;;;;4.63;3.93;;;34.70;37.60;;;;;;5023512;28;20563;-84
2022/06/24 09:03:28;;;;;;;5.90;4.67;;;34.60;37.70;;;;;;5016968;28;20531;-83
2022/06/24 09:05:56;;;;;;;4.57;4.20;;;34.50;37.70;;;;;;5017225;28;20445;-83
2022/06/24 09:08:26;;;;;;;4.97;4.57;;;34.50;38.00;;;;;;5019073;28;20500;-83
2022/06/24 09:11:07;;;;;;;4.63;4.43;;;34.40;38.00;;;;;;5018495;28;20491;-83
2022/06/24 09:13:43;;;;;;;4.83;4.43;;;34.20;38.10;;;;;;5031961;28;20513;-82
2022/06/24 09:16:11;;;;;;;4.97;4.57;;;34.20;38.40;;;;;;5029016;28;20484;-83
2022/06/24 09:18:39;;;;;;;5.13;4.63;;;34.10;38.50;;;;;;5021971;28;20475;-83
2022/06/24 09:21:08;;;;;;;5.53;5.03;;;34.10;38.50;;;;;;5023666;28;20499;-80
2022/06/24 09:23:52;;;;;;;5.20;4.90;;;34.10;38.70;;;;;;5017689;28;20555;-82
2022/06/24 09:26:30;;;;;;;5.00;4.60;;;34.10;38.80;;;;;;5008925;28;20456;-81
2022/06/24 09:29:00;;;;;;;5.57;5.07;;;34.00;38.80;;;;;;5012115;28;20954;-82
2022/06/24 09:31:31;;;;;;;5.83;5.47;;;34.00;38.80;;;;;;5024663;28;20942;-83
2022/06/24 09:34:10;;;;;;;5.30;5.00;;;33.90;39.00;;;;;;5023295;28;20460;-83
2022/06/24 09:36:39;;;;;;;5.37;4.87;;;33.80;39.10;;;;;;5017050;28;20440;-82
2022/06/24 09:39:08;;;;;;;5.90;5.00;;;33.70;39.10;;;;;;5026735;28;20483;-81
2022/06/24 09:41:43;;;;;;;5.80;5.10;;;33.70;39.20;;;;;;5014996;28;20492;-82
2022/06/24 09:44:12;;;;;;;5.63;5.17;;;33.70;39.30;;;;;;5025379;28;20452;-81
2022/06/24 09:46:40;;;;;;;8.77;5.20;;;33.70;39.40;;;;;;5017633;28;20471;-82
2022/06/24 09:49:10;;;;;;;6.47;5.13;;;33.70;39.40;;;;;;5018289;28;20498;-82
2022/06/24 09:51:39;;;;;;;5.53;5.23;;;33.70;39.40;;;;;;5017148;28;20499;-82
2022/06/24 09:54:07;;;;;;;6.13;5.73;;;33.70;39.40;;;;;;5017060;28;20433;-81
2022/06/24 09:56:35;;;;;;;7.17;5.43;;;33.80;39.50;;;;;;5022068;28;20443;-81
2022/06/24 10:01:50;;;;;;;5.63;5.23;;;33.90;39.30;;;;;;5018318;28;20479;-81
2022/06/24 10:04:18;;;;;;;5.10;4.70;;;34.00;39.20;;;;;;5017203;28;20444;-81
2022/06/24 10:06:48;;;;;;;4.87;4.57;;;34.20;39.10;;;;;;5017220;28;20440;-82
2022/06/24 10:09:18;;;;;;;5.30;4.90;;;34.20;39.00;;;;;;5016871;28;20539;-82
2022/06/24 10:11:46;;;;;;;5.27;4.80;;;34.30;39.00;;;;;;5021436;28;20491;-82
2022/06/24 10:14:14;;;;;;;5.60;5.03;;;34.30;38.90;;;;;;5028340;28;20444;-82
2022/06/24 10:16:43;;;;;;;5.17;4.87;;;34.30;38.90;;;;;;5004372;28;20555;-82
2022/06/24 10:19:12;;;;;;;6.50;5.00;;;34.20;38.80;;;;;;5019302;28;20556;-82
2022/06/24 10:21:49;;;;;;;4.73;4.43;;;34.20;39.10;;;;;;5017900;28;20508;-82
2022/06/24 10:24:17;;;;;;;5.47;5.07;;;34.10;39.10;;;;;;5016704;28;20448;-82
2022/06/24 10:26:46;;;;;;;5.50;5.10;;;33.90;39.20;;;;;;5015312;28;20563;-82
2022/06/24 10:29:21;;;;;;;5.40;5.00;;;33.90;39.40;;;;;;5016184;28;20448;-82
2022/06/24 10:31:52;;;;;;;6.13;4.60;;;33.90;39.30;;;;;;5015551;28;20498;-82
2022/06/24 10:34:33;;;;;;;5.30;5.00;;;33.80;39.60;;;;;;5025135;28;20533;-81
2022/06/24 10:37:05;;;;;;;5.43;5.00;;;33.90;39.80;;;;;;5007490;28;20507;-82
2022/06/24 10:39:34;;;;;;;6.93;4.70;;;33.80;39.50;;;;;;5017094;28;20458;-82
2022/06/24 10:42:03;;;;;;;5.10;4.80;;;33.80;39.70;;;;;;5016826;28;20539;-81
2022/06/24 10:44:32;;;;;;;5.07;4.77;;;33.80;39.70;;;;;;5030717;28;20478;-82
2022/06/24 10:47:29;;;;;;;5.27;4.87;;;33.80;39.80;;;;;;5024673;28;20535;-81
2022/06/24 10:50:20;;;;;;;5.20;4.90;;;33.90;39.90;;;;;;5030788;28;20447;-82
2022/06/24 10:53:00;;;;;;;5.50;5.00;;;33.80;39.80;;;;;;5029004;28;20479;-82
2022/06/24 10:55:38;;;;;;;5.00;4.60;;;33.80;40.00;;;;;;5037911;28;20487;-82
2022/06/24 10:58:11;;;;;;;5.70;5.30;;;33.70;39.90;;;;;;5022837;28;20539;-83
2022/06/24 11:00:51;;;;;;;5.30;4.90;;;33.70;40.10;;;;;;5021462;28;20474;-82
2022/06/24 11:03:24;;;;;;;5.70;5.30;;;33.60;40.20;;;;;;5021433;28;20467;-83
2022/06/24 11:05:53;;;;;;;4.80;4.60;;;33.60;40.20;;;;;;5021920;28;20450;-83
2022/06/24 11:08:22;;;;;;;5.60;5.20;;;33.60;40.30;;;;;;5020297;28;20451;-82
2022/06/24 11:10:50;;;;;;;5.00;4.60;;;33.60;40.40;;;;;;5032397;28;20432;-82
2022/06/24 11:13:20;;;;;;;5.60;5.20;;;33.70;40.40;;;;;;5040898;28;20553;-82
2022/06/24 11:15:49;;;;;;;5.43;5.03;;;33.70;40.30;;;;;;5042542;28;20530;-82
2022/06/24 11:18:18;;;;;;;4.70;4.50;;;33.70;40.30;;;;;;5034297;28;20468;-82
2022/06/24 11:20:49;;;;;;;5.57;4.40;;;33.70;40.20;;;;;;5023719;28;20554;-83
2022/06/24 11:23:19;;;;;;;4.20;4.00;;;33.70;40.30;;;;;;5021626;28;20543;-83
2022/06/24 11:25:50;;;;;;;4.80;4.40;;;33.60;40.20;;;;;;5020988;28;20462;-83
2022/06/24 11:28:19;;;;;;;4.50;4.10;;;33.70;40.30;;;;;;5028235;28;20494;-83
2022/06/24 11:30:50;;;;;;;4.80;4.50;;;33.60;40.30;;;;;;5041652;28;20474;-83
2022/06/24 11:33:21;;;;;;;4.63;4.10;;;33.60;40.10;;;;;;5032543;28;20464;-82
2022/06/24 11:35:49;;;;;;;4.43;4.13;;;33.60;40.10;;;;;;5001982;28;20457;-83
2022/06/24 11:38:23;;;;;;;4.00;3.73;;;33.60;40.10;;;;;;5015405;28;20454;-83
2022/06/24 11:40:56;;;;;;;5.07;4.47;;;33.60;40.30;;;;;;5023285;28;20908;-83
2022/06/24 11:43:24;;;;;;;4.87;4.43;;;33.50;40.40;;;;;;5024959;28;20846;-83
2022/06/24 11:45:57;;;;;;;3.80;3.60;;;33.50;40.20;;;;;;5041801;28;20443;-83
2022/06/24 11:48:30;;;;;;;3.93;3.73;;;33.60;40.40;;;;;;5040264;28;20538;-83
2022/06/24 11:50:58;;;;;;;3.77;3.43;;;34.10;40.30;;;;;;5015089;28;20460;-83
2022/06/24 11:53:27;;;;;;;3.83;3.53;;;34.50;39.60;;;;;;5016179;28;20499;-83
2022/06/24 11:55:55;;;;;;;3.57;3.37;;;34.80;39.20;;;;;;5013049;28;20476;-83
2022/06/24 11:58:24;;;;;;;3.83;3.63;;;34.80;39.40;;;;;;5022821;28;20978;-83
2022/06/24 12:00:52;;;;;;;4.23;3.93;;;34.80;38.80;;;;;;5035301;28;20468;-83
2022/06/24 12:03:21;;;;;;;3.87;3.67;;;34.80;38.80;;;;;;5030485;28;20461;-83
2022/06/24 12:05:50;;;;;;;3.40;3.20;;;34.90;39.30;;;;;;5026528;28;20455;-82
2022/06/24 12:08:18;;;;;;;3.13;3.03;;;34.90;38.60;;;;;;5025474;28;20440;-83
2022/06/24 12:10:52;;;;;;;3.80;3.60;;;34.90;38.50;;;;;;5022009;28;20531;-83
2022/06/24 12:13:27;;;;;;;3.30;3.10;;;34.90;38.60;;;;;;5019874;28;20483;-82
2022/06/24 12:15:56;;;;;;;3.67;3.47;;;34.80;38.50;;;;;;5022123;28;20455;-83
2022/06/24 12:18:24;;;;;;;3.50;3.30;;;34.70;38.70;;;;;;5031989;28;20462;-83
2022/06/24 12:21:03;;;;;;;3.20;3.10;;;34.60;38.80;;;;;;5040579;28;20448;-83
2022/06/24 12:23:35;;;;;;;3.20;2.77;;;34.50;39.00;;;;;;5020567;28;20460;-83
2022/06/24 12:26:14;;;;;;;3.10;3.00;;;34.60;38.80;;;;;;5013210;28;20455;-83
2022/06/24 12:28:42;;;;;;;3.87;3.00;;;34.70;38.80;;;;;;5019918;28;20476;-83
2022/06/24 12:31:11;;;;;;;3.23;3.13;;;34.70;38.70;;;;;;5019590;28;20467;-83
2022/06/24 12:33:50;;;;;;;2.97;2.77;;;34.70;38.70;;;;;;5027981;28;20467;-83
2022/06/24 12:36:19;;;;;;;2.37;2.27;;;34.80;38.80;;;;;;5033244;28;20448;-83
2022/06/24 12:38:59;;;;;;;2.50;2.30;;;34.90;38.40;;;;;;5040625;28;20981;-83
2022/06/24 12:41:29;;;;;;;2.50;2.40;;;35.10;38.40;;;;;;5040900;28;20475;-83
2022/06/24 12:43:58;;;;;;;2.27;2.17;;;35.50;38.10;;;;;;5027581;28;20444;-83
2022/06/24 12:46:28;;;;;;;2.27;2.17;;;36.00;37.60;;;;;;5021837;28;20480;-83
2022/06/24 12:51:45;;;;;;;2.47;2.37;;;36.60;36.70;;;;;;5031493;28;20479;-83
2022/06/24 12:54:14;;;;;;;2.23;2.10;;;36.50;36.60;;;;;;5024110;28;20471;-83
2022/06/24 12:57:04;;;;;;;2.13;1.90;;;36.30;36.40;;;;;;5022912;28;20506;-83
2022/06/24 12:59:32;;;;;;;2.17;2.07;;;36.20;36.70;;;;;;5040573;28;20453;-83
2022/06/24 13:02:00;;;;;;;2.20;2.10;;;36.10;36.80;;;;;;5038390;28;20479;-83
2022/06/24 13:04:29;;;;;;;2.37;2.27;;;36.00;36.80;;;;;;5028971;28;20462;-83
2022/06/24 13:06:57;;;;;;;2.60;2.07;;;36.00;36.90;;;;;;5013107;28;20962;-83
2022/06/24 13:09:25;;;;;;;2.00;1.90;;;36.20;36.90;;;;;;5020715;28;20464;-83
2022/06/24 13:11:53;;;;;;;2.17;2.07;;;36.20;36.70;;;;;;5029206;28;20502;-83
2022/06/24 13:14:23;;;;;;;1.70;1.70;;;36.20;36.60;;;;;;5033381;28;20463;-83